sensor_id;sensor_type;location;lat;lon;timestamp;P1;durP1;ratioP1;P2;durP2;ratioP2
68379;SDS011;57711;53.196;19.638;2023-02-01T00:00:33;6.80;;;2.70;;
68379;SDS011;57711;53.196;19.638;2023-02-01T00:03:21;25.90;;;17.10;;
68379;SDS011;57711;53.196;19.638;2023-02-01T00:05:58;7.70;;;3.40;;
68379;SDS011;57711;53.196;19.638;2023-02-01T00:08:26;12.80;;;4.30;;
68379;SDS011;57711;53.196;19.638;2023-02-01T00:11:09;8.00;;;2.60;;
68379;SDS011;57711;53.196;19.638;2023-02-01T00:13:39;6.40;;;1.60;;
68379;SDS011;57711;53.196;19.638;2023-02-01T00:16:08;9.30;;;2.90;;
68379;SDS011;57711;53.196;19.638;2023-02-01T00:18:36;6.10;;;2.90;;
68379;SDS011;57711;53.196;19.638;2023-02-01T00:21:03;15.00;;;2.60;;
68379;SDS011;57711;53.196;19.638;2023-02-01T00:23:32;8.20;;;2.00;;
68379;SDS011;57711;53.196;19.638;2023-02-01T00:26:01;6.70;;;1.50;;
68379;SDS011;57711;53.196;19.638;2023-02-01T00:28:30;4.80;;;1.70;;
68379;SDS011;57711;53.196;19.638;2023-02-01T00:30:58;13.10;;;2.40;;
68379;SDS011;57711;53.196;19.638;2023-02-01T00:33:27;5.70;;;1.80;;
68379;SDS011;57711;53.196;19.638;2023-02-01T00:35:56;12.20;;;3.00;;
68379;SDS011;57711;53.196;19.638;2023-02-01T00:38:25;13.90;;;3.10;;
68379;SDS011;57711;53.196;19.638;2023-02-01T00:40:54;6.00;;;1.70;;
68379;SDS011;57711;53.196;19.638;2023-02-01T00:43:28;6.70;;;2.70;;
68379;SDS011;57711;53.196;19.638;2023-02-01T00:45:55;9.70;;;2.10;;
68379;SDS011;57711;53.196;19.638;2023-02-01T00:48:22;4.40;;;1.40;;
68379;SDS011;57711;53.196;19.638;2023-02-01T00:50:50;9.00;;;2.20;;
68379;SDS011;57711;53.196;19.638;2023-02-01T00:53:18;10.60;;;2.20;;
68379;SDS011;57711;53.196;19.638;2023-02-01T00:55:45;5.10;;;1.60;;
68379;SDS011;57711;53.196;19.638;2023-02-01T00:58:14;9.00;;;1.50;;
68379;SDS011;57711;53.196;19.638;2023-02-01T01:00:41;9.50;;;2.30;;
68379;SDS011;57711;53.196;19.638;2023-02-01T01:03:09;9.60;;;2.00;;
68379;SDS011;57711;53.196;19.638;2023-02-01T01:05:46;10.20;;;2.80;;
68379;SDS011;57711;53.196;19.638;2023-02-01T01:08:15;6.20;;;2.00;;
68379;SDS011;57711;53.196;19.638;2023-02-01T01:10:43;7.80;;;2.40;;
68379;SDS011;57711;53.196;19.638;2023-02-01T01:13:10;4.70;;;1.90;;
68379;SDS011;57711;53.196;19.638;2023-02-01T01:15:38;9.80;;;2.00;;
68379;SDS011;57711;53.196;19.638;2023-02-01T01:18:06;6.50;;;1.40;;
68379;SDS011;57711;53.196;19.638;2023-02-01T01:20:35;6.00;;;1.30;;
68379;SDS011;57711;53.196;19.638;2023-02-01T01:23:05;7.00;;;2.00;;
68379;SDS011;57711;53.196;19.638;2023-02-01T01:25:32;8.60;;;2.40;;
68379;SDS011;57711;53.196;19.638;2023-02-01T01:28:04;8.90;;;2.70;;
68379;SDS011;57711;53.196;19.638;2023-02-01T01:30:35;12.80;;;3.40;;
68379;SDS011;57711;53.196;19.638;2023-02-01T01:33:02;10.10;;;2.30;;
68379;SDS011;57711;53.196;19.638;2023-02-01T01:35:30;14.10;;;3.90;;
68379;SDS011;57711;53.196;19.638;2023-02-01T01:37:59;11.60;;;3.30;;
68379;SDS011;57711;53.196;19.638;2023-02-01T01:40:28;9.50;;;2.20;;
68379;SDS011;57711;53.196;19.638;2023-02-01T01:42:56;9.30;;;2.00;;
68379;SDS011;57711;53.196;19.638;2023-02-01T01:47:58;9.60;;;2.30;;
68379;SDS011;57711;53.196;19.638;2023-02-01T01:50:41;11.60;;;2.30;;
68379;SDS011;57711;53.196;19.638;2023-02-01T01:53:16;8.00;;;1.50;;
68379;SDS011;57711;53.196;19.638;2023-02-01T01:55:49;7.80;;;2.30;;
68379;SDS011;57711;53.196;19.638;2023-02-01T01:58:18;11.80;;;3.00;;
68379;SDS011;57711;53.196;19.638;2023-02-01T02:00:50;8.30;;;2.50;;
68379;SDS011;57711;53.196;19.638;2023-02-01T02:03:22;11.00;;;1.90;;
68379;SDS011;57711;53.196;19.638;2023-02-01T02:05:53;5.90;;;1.60;;
68379;SDS011;57711;53.196;19.638;2023-02-01T02:08:24;8.60;;;2.00;;
68379;SDS011;57711;53.196;19.638;2023-02-01T02:10:53;6.80;;;1.40;;
68379;SDS011;57711;53.196;19.638;2023-02-01T02:41:15;12.20;;;3.20;;
68379;SDS011;57711;53.196;19.638;2023-02-01T02:44:09;10.20;;;3.90;;
68379;SDS011;57711;53.196;19.638;2023-02-01T02:47:03;12.10;;;3.80;;
68379;SDS011;57711;53.196;19.638;2023-02-01T02:49:58;9.00;;;2.60;;
68379;SDS011;57711;53.196;19.638;2023-02-01T02:52:48;6.00;;;1.90;;
68379;SDS011;57711;53.196;19.638;2023-02-01T02:55:46;6.80;;;2.20;;
68379;SDS011;57711;53.196;19.638;2023-02-01T02:58:14;9.30;;;2.50;;
68379;SDS011;57711;53.196;19.638;2023-02-01T03:01:02;12.60;;;2.20;;
68379;SDS011;57711;53.196;19.638;2023-02-01T03:03:49;10.50;;;2.60;;
68379;SDS011;57711;53.196;19.638;2023-02-01T03:06:38;8.10;;;2.20;;
68379;SDS011;57711;53.196;19.638;2023-02-01T03:09:07;6.70;;;1.80;;
68379;SDS011;57711;53.196;19.638;2023-02-01T03:11:56;9.90;;;2.30;;
68379;SDS011;57711;53.196;19.638;2023-02-01T03:14:51;12.90;;;2.50;;
68379;SDS011;57711;53.196;19.638;2023-02-01T03:17:26;16.40;;;2.70;;
68379;SDS011;57711;53.196;19.638;2023-02-01T03:19:59;10.20;;;2.30;;
68379;SDS011;57711;53.196;19.638;2023-02-01T03:22:30;11.70;;;2.20;;
68379;SDS011;57711;53.196;19.638;2023-02-01T03:25:07;10.00;;;2.30;;
68379;SDS011;57711;53.196;19.638;2023-02-01T03:27:51;9.60;;;2.50;;
68379;SDS011;57711;53.196;19.638;2023-02-01T03:30:26;6.30;;;2.10;;
68379;SDS011;57711;53.196;19.638;2023-02-01T03:32:58;14.50;;;2.90;;
68379;SDS011;57711;53.196;19.638;2023-02-01T03:35:37;9.50;;;2.20;;
68379;SDS011;57711;53.196;19.638;2023-02-01T03:40:45;9.90;;;2.60;;
68379;SDS011;57711;53.196;19.638;2023-02-01T03:43:18;11.80;;;2.90;;
68379;SDS011;57711;53.196;19.638;2023-02-01T03:45:53;12.70;;;4.00;;
68379;SDS011;57711;53.196;19.638;2023-02-01T03:48:26;12.20;;;3.50;;
68379;SDS011;57711;53.196;19.638;2023-02-01T03:50:57;9.20;;;3.00;;
68379;SDS011;57711;53.196;19.638;2023-02-01T03:53:28;5.30;;;1.70;;
68379;SDS011;57711;53.196;19.638;2023-02-01T03:55:57;12.20;;;2.50;;
68379;SDS011;57711;53.196;19.638;2023-02-01T03:58:25;10.00;;;2.10;;
68379;SDS011;57711;53.196;19.638;2023-02-01T04:00:56;11.50;;;3.10;;
68379;SDS011;57711;53.196;19.638;2023-02-01T04:03:26;7.20;;;2.50;;
68379;SDS011;57711;53.196;19.638;2023-02-01T04:05:55;9.00;;;2.70;;
68379;SDS011;57711;53.196;19.638;2023-02-01T04:08:25;12.80;;;2.80;;
68379;SDS011;57711;53.196;19.638;2023-02-01T04:10:53;161.40;;;64.30;;
68379;SDS011;57711;53.196;19.638;2023-02-01T04:13:20;25.60;;;9.30;;
68379;SDS011;57711;53.196;19.638;2023-02-01T04:15:47;14.60;;;6.00;;
68379;SDS011;57711;53.196;19.638;2023-02-01T04:18:16;13.70;;;3.90;;
68379;SDS011;57711;53.196;19.638;2023-02-01T04:20:44;16.00;;;5.90;;
68379;SDS011;57711;53.196;19.638;2023-02-01T04:23:12;26.60;;;11.00;;
68379;SDS011;57711;53.196;19.638;2023-02-01T04:25:39;39.00;;;14.40;;
68379;SDS011;57711;53.196;19.638;2023-02-01T04:28:06;36.80;;;14.50;;
68379;SDS011;57711;53.196;19.638;2023-02-01T04:30:34;29.60;;;13.60;;
68379;SDS011;57711;53.196;19.638;2023-02-01T04:33:01;24.70;;;10.30;;
68379;SDS011;57711;53.196;19.638;2023-02-01T04:35:31;32.20;;;15.10;;
68379;SDS011;57711;53.196;19.638;2023-02-01T04:37:59;24.20;;;12.10;;
68379;SDS011;57711;53.196;19.638;2023-02-01T04:40:26;16.90;;;4.80;;
68379;SDS011;57711;53.196;19.638;2023-02-01T04:42:53;14.10;;;3.50;;
68379;SDS011;57711;53.196;19.638;2023-02-01T04:45:21;9.60;;;4.00;;
68379;SDS011;57711;53.196;19.638;2023-02-01T04:47:48;16.30;;;5.00;;
68379;SDS011;57711;53.196;19.638;2023-02-01T04:50:15;16.20;;;5.20;;
68379;SDS011;57711;53.196;19.638;2023-02-01T04:52:42;17.10;;;3.40;;
68379;SDS011;57711;53.196;19.638;2023-02-01T04:55:12;13.20;;;3.30;;
68379;SDS011;57711;53.196;19.638;2023-02-01T04:57:40;14.30;;;4.30;;
68379;SDS011;57711;53.196;19.638;2023-02-01T05:00:07;21.00;;;7.80;;
68379;SDS011;57711;53.196;19.638;2023-02-01T05:02:35;25.70;;;7.60;;
68379;SDS011;57711;53.196;19.638;2023-02-01T05:05:03;22.90;;;8.20;;
68379;SDS011;57711;53.196;19.638;2023-02-01T05:07:30;27.90;;;12.00;;
68379;SDS011;57711;53.196;19.638;2023-02-01T05:09:57;11.30;;;4.10;;
68379;SDS011;57711;53.196;19.638;2023-02-01T05:12:25;15.20;;;5.40;;
68379;SDS011;57711;53.196;19.638;2023-02-01T05:15:11;14.60;;;3.60;;
68379;SDS011;57711;53.196;19.638;2023-02-01T05:17:38;11.50;;;3.00;;
68379;SDS011;57711;53.196;19.638;2023-02-01T05:20:07;16.30;;;4.90;;
68379;SDS011;57711;53.196;19.638;2023-02-01T05:22:35;39.40;;;11.40;;
68379;SDS011;57711;53.196;19.638;2023-02-01T05:25:03;22.40;;;5.10;;
68379;SDS011;57711;53.196;19.638;2023-02-01T05:27:33;24.80;;;8.10;;
68379;SDS011;57711;53.196;19.638;2023-02-01T05:30:02;19.10;;;7.80;;
68379;SDS011;57711;53.196;19.638;2023-02-01T05:32:30;13.70;;;5.60;;
68379;SDS011;57711;53.196;19.638;2023-02-01T05:34:58;8.90;;;3.00;;
68379;SDS011;57711;53.196;19.638;2023-02-01T05:37:25;9.70;;;2.90;;
68379;SDS011;57711;53.196;19.638;2023-02-01T05:39:52;9.30;;;2.40;;
68379;SDS011;57711;53.196;19.638;2023-02-01T05:42:20;17.40;;;5.80;;
68379;SDS011;57711;53.196;19.638;2023-02-01T05:44:47;11.50;;;3.40;;
68379;SDS011;57711;53.196;19.638;2023-02-01T05:47:15;29.80;;;10.30;;
68379;SDS011;57711;53.196;19.638;2023-02-01T05:49:42;20.10;;;7.10;;
68379;SDS011;57711;53.196;19.638;2023-02-01T05:52:10;15.40;;;4.60;;
68379;SDS011;57711;53.196;19.638;2023-02-01T05:54:37;9.30;;;2.90;;
68379;SDS011;57711;53.196;19.638;2023-02-01T05:57:04;13.00;;;3.10;;
68379;SDS011;57711;53.196;19.638;2023-02-01T05:59:31;14.40;;;2.90;;
68379;SDS011;57711;53.196;19.638;2023-02-01T06:01:59;8.70;;;2.80;;
68379;SDS011;57711;53.196;19.638;2023-02-01T06:04:26;8.30;;;2.70;;
68379;SDS011;57711;53.196;19.638;2023-02-01T06:06:53;8.00;;;2.40;;
68379;SDS011;57711;53.196;19.638;2023-02-01T06:09:20;7.90;;;2.50;;
68379;SDS011;57711;53.196;19.638;2023-02-01T06:11:47;11.20;;;2.20;;
68379;SDS011;57711;53.196;19.638;2023-02-01T06:14:15;10.10;;;2.60;;
68379;SDS011;57711;53.196;19.638;2023-02-01T06:16:42;9.90;;;2.00;;
68379;SDS011;57711;53.196;19.638;2023-02-01T06:19:12;7.50;;;2.70;;
68379;SDS011;57711;53.196;19.638;2023-02-01T06:21:40;8.60;;;2.30;;
68379;SDS011;57711;53.196;19.638;2023-02-01T06:24:08;12.90;;;2.30;;
68379;SDS011;57711;53.196;19.638;2023-02-01T06:26:35;9.30;;;2.00;;
68379;SDS011;57711;53.196;19.638;2023-02-01T06:29:03;7.10;;;2.10;;
68379;SDS011;57711;53.196;19.638;2023-02-01T06:31:30;12.60;;;2.10;;
68379;SDS011;57711;53.196;19.638;2023-02-01T06:33:59;10.60;;;2.70;;
68379;SDS011;57711;53.196;19.638;2023-02-01T06:36:26;9.80;;;2.40;;
68379;SDS011;57711;53.196;19.638;2023-02-01T06:38:53;8.50;;;2.30;;
68379;SDS011;57711;53.196;19.638;2023-02-01T06:41:23;13.70;;;3.20;;
68379;SDS011;57711;53.196;19.638;2023-02-01T06:43:50;9.50;;;3.10;;
68379;SDS011;57711;53.196;19.638;2023-02-01T06:46:17;19.00;;;3.80;;
68379;SDS011;57711;53.196;19.638;2023-02-01T06:48:45;12.60;;;3.10;;
68379;SDS011;57711;53.196;19.638;2023-02-01T06:51:19;10.30;;;2.70;;
68379;SDS011;57711;53.196;19.638;2023-02-01T06:56:15;15.80;;;4.00;;
68379;SDS011;57711;53.196;19.638;2023-02-01T06:58:43;15.00;;;3.30;;
68379;SDS011;57711;53.196;19.638;2023-02-01T07:01:10;8.30;;;2.30;;
68379;SDS011;57711;53.196;19.638;2023-02-01T07:03:38;9.30;;;2.60;;
68379;SDS011;57711;53.196;19.638;2023-02-01T07:06:06;14.20;;;2.70;;
68379;SDS011;57711;53.196;19.638;2023-02-01T07:08:35;16.60;;;2.80;;
68379;SDS011;57711;53.196;19.638;2023-02-01T07:11:08;11.00;;;2.80;;
68379;SDS011;57711;53.196;19.638;2023-02-01T07:13:38;12.60;;;3.00;;
68379;SDS011;57711;53.196;19.638;2023-02-01T07:16:06;9.00;;;2.80;;
68379;SDS011;57711;53.196;19.638;2023-02-01T07:18:39;14.90;;;2.90;;
68379;SDS011;57711;53.196;19.638;2023-02-01T07:21:06;11.80;;;2.90;;
68379;SDS011;57711;53.196;19.638;2023-02-01T07:23:34;12.80;;;3.20;;
68379;SDS011;57711;53.196;19.638;2023-02-01T07:26:02;12.00;;;3.20;;
68379;SDS011;57711;53.196;19.638;2023-02-01T07:28:33;15.10;;;4.40;;
68379;SDS011;57711;53.196;19.638;2023-02-01T07:31:02;14.40;;;4.00;;
68379;SDS011;57711;53.196;19.638;2023-02-01T07:33:30;14.10;;;3.20;;
68379;SDS011;57711;53.196;19.638;2023-02-01T07:35:59;13.40;;;2.90;;
68379;SDS011;57711;53.196;19.638;2023-02-01T07:38:28;11.00;;;3.00;;
68379;SDS011;57711;53.196;19.638;2023-02-01T07:40:59;13.10;;;3.10;;
68379;SDS011;57711;53.196;19.638;2023-02-01T07:43:30;13.00;;;3.10;;
68379;SDS011;57711;53.196;19.638;2023-02-01T07:45:59;16.10;;;3.70;;
68379;SDS011;57711;53.196;19.638;2023-02-01T07:48:27;14.60;;;3.40;;
68379;SDS011;57711;53.196;19.638;2023-02-01T07:50:59;13.60;;;2.70;;
68379;SDS011;57711;53.196;19.638;2023-02-01T07:53:31;12.00;;;3.40;;
68379;SDS011;57711;53.196;19.638;2023-02-01T07:56:00;13.20;;;5.60;;
68379;SDS011;57711;53.196;19.638;2023-02-01T07:58:27;11.50;;;4.10;;
68379;SDS011;57711;53.196;19.638;2023-02-01T08:00:55;13.30;;;3.50;;
68379;SDS011;57711;53.196;19.638;2023-02-01T08:06:08;12.40;;;4.10;;
68379;SDS011;57711;53.196;19.638;2023-02-01T08:08:35;18.20;;;6.00;;
68379;SDS011;57711;53.196;19.638;2023-02-01T08:11:03;165.30;;;61.40;;
68379;SDS011;57711;53.196;19.638;2023-02-01T08:13:35;304.70;;;79.50;;
68379;SDS011;57711;53.196;19.638;2023-02-01T08:16:03;260.80;;;57.40;;
68379;SDS011;57711;53.196;19.638;2023-02-01T08:18:33;187.50;;;45.40;;
68379;SDS011;57711;53.196;19.638;2023-02-01T08:21:18;217.60;;;58.20;;
68379;SDS011;57711;53.196;19.638;2023-02-01T08:23:48;72.10;;;25.20;;
68379;SDS011;57711;53.196;19.638;2023-02-01T08:26:17;49.20;;;24.10;;
68379;SDS011;57711;53.196;19.638;2023-02-01T08:28:48;54.90;;;23.80;;
68379;SDS011;57711;53.196;19.638;2023-02-01T08:31:18;21.30;;;7.30;;
68379;SDS011;57711;53.196;19.638;2023-02-01T08:33:49;23.20;;;7.40;;
68379;SDS011;57711;53.196;19.638;2023-02-01T08:36:18;16.30;;;3.80;;
68379;SDS011;57711;53.196;19.638;2023-02-01T08:38:46;16.60;;;4.30;;
68379;SDS011;57711;53.196;19.638;2023-02-01T08:41:14;14.70;;;4.60;;
68379;SDS011;57711;53.196;19.638;2023-02-01T08:43:44;21.50;;;5.90;;
68379;SDS011;57711;53.196;19.638;2023-02-01T08:46:11;10.80;;;3.20;;
68379;SDS011;57711;53.196;19.638;2023-02-01T08:48:39;15.90;;;4.00;;
68379;SDS011;57711;53.196;19.638;2023-02-01T08:51:08;10.60;;;3.60;;
68379;SDS011;57711;53.196;19.638;2023-02-01T08:53:38;16.10;;;4.20;;
68379;SDS011;57711;53.196;19.638;2023-02-01T08:56:10;171.40;;;49.50;;
68379;SDS011;57711;53.196;19.638;2023-02-01T08:58:38;95.10;;;30.10;;
68379;SDS011;57711;53.196;19.638;2023-02-01T09:01:07;234.80;;;53.60;;
68379;SDS011;57711;53.196;19.638;2023-02-01T09:03:39;175.80;;;49.20;;
68379;SDS011;57711;53.196;19.638;2023-02-01T09:06:08;85.90;;;40.80;;
68379;SDS011;57711;53.196;19.638;2023-02-01T09:08:40;34.60;;;17.70;;
68379;SDS011;57711;53.196;19.638;2023-02-01T09:11:09;22.90;;;9.90;;
68379;SDS011;57711;53.196;19.638;2023-02-01T09:13:39;13.90;;;6.60;;
68379;SDS011;57711;53.196;19.638;2023-02-01T09:16:06;16.10;;;7.00;;
68379;SDS011;57711;53.196;19.638;2023-02-01T09:18:33;13.80;;;5.00;;
68379;SDS011;57711;53.196;19.638;2023-02-01T09:21:07;19.00;;;5.10;;
68379;SDS011;57711;53.196;19.638;2023-02-01T09:23:35;13.90;;;4.10;;
68379;SDS011;57711;53.196;19.638;2023-02-01T09:26:03;15.80;;;5.00;;
68379;SDS011;57711;53.196;19.638;2023-02-01T09:28:31;10.70;;;3.30;;
68379;SDS011;57711;53.196;19.638;2023-02-01T09:30:59;14.70;;;3.90;;
68379;SDS011;57711;53.196;19.638;2023-02-01T09:33:28;16.80;;;4.50;;
68379;SDS011;57711;53.196;19.638;2023-02-01T09:36:03;11.20;;;3.70;;
68379;SDS011;57711;53.196;19.638;2023-02-01T09:38:31;14.50;;;3.60;;
68379;SDS011;57711;53.196;19.638;2023-02-01T09:44:05;14.50;;;4.10;;
68379;SDS011;57711;53.196;19.638;2023-02-01T09:46:35;12.90;;;3.60;;
68379;SDS011;57711;53.196;19.638;2023-02-01T09:49:16;14.10;;;3.20;;
68379;SDS011;57711;53.196;19.638;2023-02-01T09:51:48;14.20;;;3.70;;
68379;SDS011;57711;53.196;19.638;2023-02-01T09:54:18;11.70;;;3.20;;
68379;SDS011;57711;53.196;19.638;2023-02-01T09:56:51;14.10;;;3.90;;
68379;SDS011;57711;53.196;19.638;2023-02-01T09:59:34;12.90;;;3.70;;
68379;SDS011;57711;53.196;19.638;2023-02-01T10:02:08;11.00;;;3.10;;
68379;SDS011;57711;53.196;19.638;2023-02-01T10:04:43;11.60;;;3.30;;
68379;SDS011;57711;53.196;19.638;2023-02-01T10:09:44;18.40;;;4.20;;
68379;SDS011;57711;53.196;19.638;2023-02-01T10:21:19;19.10;;;4.40;;
68379;SDS011;57711;53.196;19.638;2023-02-01T10:26:45;13.70;;;2.80;;
68379;SDS011;57711;53.196;19.638;2023-02-01T10:29:20;11.80;;;3.10;;
68379;SDS011;57711;53.196;19.638;2023-02-01T10:31:52;15.50;;;4.60;;
68379;SDS011;57711;53.196;19.638;2023-02-01T10:34:27;20.50;;;4.80;;
68379;SDS011;57711;53.196;19.638;2023-02-01T10:37:14;13.70;;;3.60;;
68379;SDS011;57711;53.196;19.638;2023-02-01T10:39:48;16.70;;;4.20;;
68379;SDS011;57711;53.196;19.638;2023-02-01T10:42:20;16.00;;;3.30;;
68379;SDS011;57711;53.196;19.638;2023-02-01T10:44:51;18.90;;;3.60;;
68379;SDS011;57711;53.196;19.638;2023-02-01T10:47:20;13.70;;;4.50;;
68379;SDS011;57711;53.196;19.638;2023-02-01T10:57:58;17.40;;;4.80;;
68379;SDS011;57711;53.196;19.638;2023-02-01T11:00:28;14.10;;;4.70;;
68379;SDS011;57711;53.196;19.638;2023-02-01T11:03:22;9.80;;;3.70;;
68379;SDS011;57711;53.196;19.638;2023-02-01T11:05:57;14.40;;;4.80;;
68379;SDS011;57711;53.196;19.638;2023-02-01T11:08:25;15.20;;;4.50;;
68379;SDS011;57711;53.196;19.638;2023-02-01T11:11:02;11.30;;;3.90;;
68379;SDS011;57711;53.196;19.638;2023-02-01T11:13:33;13.30;;;3.30;;
68379;SDS011;57711;53.196;19.638;2023-02-01T11:16:04;7.00;;;2.30;;
68379;SDS011;57711;53.196;19.638;2023-02-01T11:18:35;9.40;;;2.40;;
68379;SDS011;57711;53.196;19.638;2023-02-01T11:21:04;9.30;;;2.50;;
68379;SDS011;57711;53.196;19.638;2023-02-01T11:23:33;16.40;;;5.80;;
68379;SDS011;57711;53.196;19.638;2023-02-01T11:26:14;16.70;;;6.80;;
68379;SDS011;57711;53.196;19.638;2023-02-01T11:28:51;11.50;;;4.00;;
68379;SDS011;57711;53.196;19.638;2023-02-01T11:31:21;11.20;;;3.00;;
68379;SDS011;57711;53.196;19.638;2023-02-01T11:33:52;9.20;;;2.60;;
68379;SDS011;57711;53.196;19.638;2023-02-01T11:36:23;7.70;;;2.70;;
68379;SDS011;57711;53.196;19.638;2023-02-01T11:39:07;8.50;;;2.70;;
68379;SDS011;57711;53.196;19.638;2023-02-01T11:41:54;9.10;;;3.40;;
68379;SDS011;57711;53.196;19.638;2023-02-01T11:44:37;9.70;;;3.70;;
68379;SDS011;57711;53.196;19.638;2023-02-01T11:49:52;20.00;;;4.10;;
68379;SDS011;57711;53.196;19.638;2023-02-01T12:01:03;12.80;;;3.50;;
68379;SDS011;57711;53.196;19.638;2023-02-01T12:06:19;10.20;;;3.50;;
68379;SDS011;57711;53.196;19.638;2023-02-01T12:25:18;18.20;;;4.40;;
68379;SDS011;57711;53.196;19.638;2023-02-01T12:28:27;12.80;;;3.50;;
68379;SDS011;57711;53.196;19.638;2023-02-01T12:33:44;12.70;;;3.30;;
68379;SDS011;57711;53.196;19.638;2023-02-01T12:36:19;14.80;;;4.80;;
68379;SDS011;57711;53.196;19.638;2023-02-01T12:39:15;15.30;;;4.10;;
68379;SDS011;57711;53.196;19.638;2023-02-01T12:42:15;14.10;;;3.90;;
68379;SDS011;57711;53.196;19.638;2023-02-01T12:50:45;19.70;;;5.20;;
68379;SDS011;57711;53.196;19.638;2023-02-01T12:53:19;14.70;;;4.20;;
68379;SDS011;57711;53.196;19.638;2023-02-01T12:55:55;16.20;;;3.90;;
68379;SDS011;57711;53.196;19.638;2023-02-01T13:01:18;10.60;;;3.60;;
68379;SDS011;57711;53.196;19.638;2023-02-01T13:04:03;15.40;;;4.50;;
68379;SDS011;57711;53.196;19.638;2023-02-01T13:06:46;15.80;;;3.80;;
68379;SDS011;57711;53.196;19.638;2023-02-01T13:09:27;15.20;;;3.90;;
68379;SDS011;57711;53.196;19.638;2023-02-01T13:12:00;11.60;;;3.20;;
68379;SDS011;57711;53.196;19.638;2023-02-01T13:17:23;13.70;;;3.20;;
68379;SDS011;57711;53.196;19.638;2023-02-01T13:19:56;10.70;;;2.70;;
68379;SDS011;57711;53.196;19.638;2023-02-01T13:22:43;9.70;;;3.00;;
68379;SDS011;57711;53.196;19.638;2023-02-01T13:25:15;10.40;;;3.20;;
68379;SDS011;57711;53.196;19.638;2023-02-01T13:28:03;11.50;;;4.10;;
68379;SDS011;57711;53.196;19.638;2023-02-01T13:30:45;10.90;;;3.20;;
68379;SDS011;57711;53.196;19.638;2023-02-01T13:33:22;13.00;;;3.40;;
68379;SDS011;57711;53.196;19.638;2023-02-01T13:41:39;16.40;;;3.40;;
68379;SDS011;57711;53.196;19.638;2023-02-01T13:44:28;12.30;;;3.20;;
68379;SDS011;57711;53.196;19.638;2023-02-01T13:47:08;10.80;;;2.50;;
68379;SDS011;57711;53.196;19.638;2023-02-01T13:50:03;14.50;;;4.00;;
68379;SDS011;57711;53.196;19.638;2023-02-01T13:52:40;13.10;;;3.90;;
68379;SDS011;57711;53.196;19.638;2023-02-01T13:57:49;9.30;;;2.80;;
68379;SDS011;57711;53.196;19.638;2023-02-01T14:08:07;11.30;;;3.30;;
68379;SDS011;57711;53.196;19.638;2023-02-01T14:13:31;13.30;;;4.20;;
68379;SDS011;57711;53.196;19.638;2023-02-01T14:34:30;8.90;;;3.40;;
68379;SDS011;57711;53.196;19.638;2023-02-01T14:37:00;9.50;;;2.60;;
68379;SDS011;57711;53.196;19.638;2023-02-01T14:39:31;7.40;;;2.50;;
68379;SDS011;57711;53.196;19.638;2023-02-01T14:42:04;7.50;;;3.00;;
68379;SDS011;57711;53.196;19.638;2023-02-01T14:44:43;9.60;;;3.00;;
68379;SDS011;57711;53.196;19.638;2023-02-01T14:58:32;7.00;;;3.50;;
68379;SDS011;57711;53.196;19.638;2023-02-01T15:03:52;13.50;;;6.40;;
68379;SDS011;57711;53.196;19.638;2023-02-01T15:06:57;10.00;;;4.50;;
68379;SDS011;57711;53.196;19.638;2023-02-01T15:09:34;19.70;;;8.80;;
68379;SDS011;57711;53.196;19.638;2023-02-01T15:14:38;31.70;;;14.10;;
68379;SDS011;57711;53.196;19.638;2023-02-01T15:17:20;89.00;;;45.60;;
68379;SDS011;57711;53.196;19.638;2023-02-01T15:19:55;52.00;;;26.50;;
68379;SDS011;57711;53.196;19.638;2023-02-01T15:22:25;37.80;;;20.50;;
68379;SDS011;57711;53.196;19.638;2023-02-01T15:24:57;50.80;;;28.20;;
68379;SDS011;57711;53.196;19.638;2023-02-01T15:27:26;24.90;;;15.00;;
68379;SDS011;57711;53.196;19.638;2023-02-01T15:30:05;25.90;;;14.20;;
68379;SDS011;57711;53.196;19.638;2023-02-01T15:32:42;14.00;;;7.60;;
68379;SDS011;57711;53.196;19.638;2023-02-01T15:46:32;67.10;;;49.20;;
68379;SDS011;57711;53.196;19.638;2023-02-01T15:49:03;31.10;;;20.90;;
68379;SDS011;57711;53.196;19.638;2023-02-01T15:51:31;26.90;;;19.40;;
68379;SDS011;57711;53.196;19.638;2023-02-01T15:54:00;28.00;;;12.20;;
68379;SDS011;57711;53.196;19.638;2023-02-01T15:56:38;17.00;;;8.30;;
68379;SDS011;57711;53.196;19.638;2023-02-01T15:59:17;21.00;;;10.80;;
68379;SDS011;57711;53.196;19.638;2023-02-01T16:01:51;21.60;;;10.50;;
68379;SDS011;57711;53.196;19.638;2023-02-01T16:04:22;29.50;;;18.60;;
68379;SDS011;57711;53.196;19.638;2023-02-01T16:06:55;15.70;;;7.20;;
68379;SDS011;57711;53.196;19.638;2023-02-01T16:09:34;20.50;;;12.00;;
68379;SDS011;57711;53.196;19.638;2023-02-01T16:14:57;31.20;;;15.70;;
68379;SDS011;57711;53.196;19.638;2023-02-01T16:17:24;26.30;;;13.90;;
68379;SDS011;57711;53.196;19.638;2023-02-01T16:19:51;105.20;;;57.60;;
68379;SDS011;57711;53.196;19.638;2023-02-01T16:22:19;63.90;;;34.70;;
68379;SDS011;57711;53.196;19.638;2023-02-01T16:24:46;141.60;;;65.60;;
68379;SDS011;57711;53.196;19.638;2023-02-01T16:27:13;83.60;;;37.00;;
68379;SDS011;57711;53.196;19.638;2023-02-01T16:29:40;36.10;;;15.70;;
68379;SDS011;57711;53.196;19.638;2023-02-01T16:32:30;91.40;;;39.20;;
68379;SDS011;57711;53.196;19.638;2023-02-01T16:34:57;39.70;;;19.80;;
68379;SDS011;57711;53.196;19.638;2023-02-01T16:37:24;83.10;;;38.20;;
68379;SDS011;57711;53.196;19.638;2023-02-01T16:39:54;41.90;;;23.00;;
68379;SDS011;57711;53.196;19.638;2023-02-01T16:42:21;46.70;;;21.30;;
68379;SDS011;57711;53.196;19.638;2023-02-01T16:44:49;65.20;;;28.10;;
68379;SDS011;57711;53.196;19.638;2023-02-01T16:47:20;149.40;;;62.40;;
68379;SDS011;57711;53.196;19.638;2023-02-01T16:49:49;212.20;;;99.20;;
68379;SDS011;57711;53.196;19.638;2023-02-01T16:54:46;242.40;;;83.80;;
68379;SDS011;57711;53.196;19.638;2023-02-01T16:57:15;167.00;;;51.80;;
68379;SDS011;57711;53.196;19.638;2023-02-01T16:59:44;259.80;;;93.00;;
68379;SDS011;57711;53.196;19.638;2023-02-01T17:02:12;405.70;;;140.10;;
68379;SDS011;57711;53.196;19.638;2023-02-01T17:04:40;159.90;;;55.60;;
68379;SDS011;57711;53.196;19.638;2023-02-01T17:07:15;120.70;;;46.10;;
68379;SDS011;57711;53.196;19.638;2023-02-01T17:09:44;161.70;;;65.80;;
68379;SDS011;57711;53.196;19.638;2023-02-01T17:12:22;55.60;;;25.00;;
68379;SDS011;57711;53.196;19.638;2023-02-01T17:14:50;78.60;;;35.10;;
68379;SDS011;57711;53.196;19.638;2023-02-01T17:17:18;184.10;;;92.50;;
68379;SDS011;57711;53.196;19.638;2023-02-01T17:20:04;68.20;;;29.50;;
68379;SDS011;57711;53.196;19.638;2023-02-01T17:22:32;107.90;;;57.10;;
68379;SDS011;57711;53.196;19.638;2023-02-01T17:25:00;39.90;;;20.00;;
68379;SDS011;57711;53.196;19.638;2023-02-01T17:27:27;73.70;;;35.60;;
68379;SDS011;57711;53.196;19.638;2023-02-01T17:29:56;41.80;;;22.30;;
68379;SDS011;57711;53.196;19.638;2023-02-01T17:32:23;119.90;;;68.80;;
68379;SDS011;57711;53.196;19.638;2023-02-01T17:34:51;110.80;;;61.50;;
68379;SDS011;57711;53.196;19.638;2023-02-01T17:39:52;74.40;;;38.10;;
68379;SDS011;57711;53.196;19.638;2023-02-01T17:42:23;169.30;;;87.50;;
68379;SDS011;57711;53.196;19.638;2023-02-01T17:44:53;91.20;;;45.80;;
68379;SDS011;57711;53.196;19.638;2023-02-01T17:47:22;58.80;;;28.50;;
68379;SDS011;57711;53.196;19.638;2023-02-01T17:49:50;173.90;;;91.40;;